Williamsburg, West Virginia
Current Conditions -  °F | °C
As of 11:15 AM on Thursday 29 Jan 2015 (Local Time) from KLWB Reporting Station
Clear Clear  
Wind Chill: 28°   Ceiling: Unl
Heat Index: 33°   Visibility: 10mi
Dew Point: 20°   Wind: 6mph
Humidity: 59%   Direction: 10°N
Pressure: 30.09"   Gusts: NA
Location:  37.97°N, 80.49°W
Report Text: KLWB 291615Z AUTO 01005KT 10SM CLR 01/M07 A3009 RMK AO2 T00061066
Loading
Personal Weather Stations






























Interactive Weather Map New forecast layout! Learn more

10-Day Weather Forecast

Advertisements
Track Severe Weather on mobile